sensor_id;sensor_type;location;lat;lon;timestamp;pressure;altitude;pressure_sealevel;temperature;humidity
78337;BME280;67610;51.588;7.002;2023-03-03T00:01:17;101611.47;;;3.19;68.89
78337;BME280;67610;51.588;7.002;2023-03-03T00:03:42;101624.47;;;3.19;68.14
78337;BME280;67610;51.588;7.002;2023-03-03T00:06:10;101603.28;;;3.27;67.62
78337;BME280;67610;51.588;7.002;2023-03-03T00:08:37;101622.81;;;3.18;68.34
78337;BME280;67610;51.588;7.002;2023-03-03T00:11:03;101623.03;;;3.14;68.38
78337;BME280;67610;51.588;7.002;2023-03-03T00:13:31;101628.91;;;3.17;68.23
78337;BME280;67610;51.588;7.002;2023-03-03T00:18:50;101619.59;;;3.13;68.26
78337;BME280;67610;51.588;7.002;2023-03-03T00:23:53;101617.16;;;3.10;68.49
78337;BME280;67610;51.588;7.002;2023-03-03T00:26:23;101616.50;;;3.07;68.46
78337;BME280;67610;51.588;7.002;2023-03-03T00:28:52;101618.09;;;3.09;68.76
78337;BME280;67610;51.588;7.002;2023-03-03T00:31:33;101615.28;;;2.97;69.17
78337;BME280;67610;51.588;7.002;2023-03-03T00:36:41;101620.47;;;2.97;69.50
78337;BME280;67610;51.588;7.002;2023-03-03T00:39:25;101621.41;;;2.96;69.54
78337;BME280;67610;51.588;7.002;2023-03-03T00:41:51;101634.22;;;2.99;69.60
78337;BME280;67610;51.588;7.002;2023-03-03T00:49:50;101638.28;;;3.04;68.86
78337;BME280;67610;51.588;7.002;2023-03-03T00:52:17;101641.72;;;3.05;68.73
78337;BME280;67610;51.588;7.002;2023-03-03T00:54:43;101640.97;;;3.03;68.89
78337;BME280;67610;51.588;7.002;2023-03-03T00:57:10;101635.81;;;3.01;69.07
78337;BME280;67610;51.588;7.002;2023-03-03T00:59:37;101635.06;;;2.99;68.88
78337;BME280;67610;51.588;7.002;2023-03-03T01:02:02;101641.34;;;2.95;68.65
78337;BME280;67610;51.588;7.002;2023-03-03T01:04:28;101645.84;;;2.92;68.96
78337;BME280;67610;51.588;7.002;2023-03-03T01:06:53;101637.28;;;2.90;69.01
78337;BME280;67610;51.588;7.002;2023-03-03T01:09:19;101629.50;;;2.90;69.00
78337;BME280;67610;51.588;7.002;2023-03-03T01:11:44;101645.09;;;2.90;69.53
78337;BME280;67610;51.588;7.002;2023-03-03T01:14:10;101645.19;;;2.88;69.63
78337;BME280;67610;51.588;7.002;2023-03-03T01:16:35;101641.34;;;2.78;69.82
78337;BME280;67610;51.588;7.002;2023-03-03T01:19:00;101641.88;;;2.84;69.42
78337;BME280;67610;51.588;7.002;2023-03-03T01:21:26;101645.09;;;2.90;69.49
78337;BME280;67610;51.588;7.002;2023-03-03T01:23:51;101641.50;;;2.92;69.26
78337;BME280;67610;51.588;7.002;2023-03-03T01:26:17;101635.38;;;2.93;69.31
78337;BME280;67610;51.588;7.002;2023-03-03T01:28:42;101641.50;;;2.92;69.28
78337;BME280;67610;51.588;7.002;2023-03-03T01:31:08;101640.88;;;2.87;69.19
78337;BME280;67610;51.588;7.002;2023-03-03T01:33:35;101644.25;;;2.89;69.06
78337;BME280;67610;51.588;7.002;2023-03-03T01:36:01;101634.78;;;2.88;69.04
78337;BME280;67610;51.588;7.002;2023-03-03T01:38:26;101640.06;;;2.87;69.17
78337;BME280;67610;51.588;7.002;2023-03-03T01:40:56;101638.53;;;2.82;69.32
78337;BME280;67610;51.588;7.002;2023-03-03T01:43:24;101649.91;;;2.80;69.38
78337;BME280;67610;51.588;7.002;2023-03-03T01:48:27;101637.09;;;2.77;69.88
78337;BME280;67610;51.588;7.002;2023-03-03T01:53:53;101640.31;;;2.82;69.36
78337;BME280;67610;51.588;7.002;2023-03-03T01:56:20;101630.16;;;2.77;69.70
78337;BME280;67610;51.588;7.002;2023-03-03T01:58:58;101629.13;;;2.80;69.31
78337;BME280;67610;51.588;7.002;2023-03-03T02:01:26;101628.97;;;2.83;69.74
78337;BME280;67610;51.588;7.002;2023-03-03T02:03:52;101622.25;;;2.79;69.54
78337;BME280;67610;51.588;7.002;2023-03-03T02:06:30;101624.88;;;2.79;69.74
78337;BME280;67610;51.588;7.002;2023-03-03T02:09:13;101630.97;;;2.78;69.69
78337;BME280;67610;51.588;7.002;2023-03-03T02:11:41;101624.88;;;2.79;69.64
78337;BME280;67610;51.588;7.002;2023-03-03T02:14:10;101628.06;;;2.84;69.69
78337;BME280;67610;51.588;7.002;2023-03-03T02:16:35;101621.78;;;2.88;69.58
78337;BME280;67610;51.588;7.002;2023-03-03T02:19:01;101627.66;;;2.92;69.34
78337;BME280;67610;51.588;7.002;2023-03-03T02:21:26;101625.75;;;2.95;68.91
78337;BME280;67610;51.588;7.002;2023-03-03T02:26:25;101634.41;;;2.96;68.40
78337;BME280;67610;51.588;7.002;2023-03-03T02:28:52;101628.50;;;2.92;69.09
78337;BME280;67610;51.588;7.002;2023-03-03T02:31:20;101637.16;;;2.93;68.57
78337;BME280;67610;51.588;7.002;2023-03-03T02:33:48;101635.53;;;2.90;68.85
78337;BME280;67610;51.588;7.002;2023-03-03T02:36:21;101633.09;;;2.87;68.84
78337;BME280;67610;51.588;7.002;2023-03-03T02:44:29;101627.47;;;2.79;69.22
78337;BME280;67610;51.588;7.002;2023-03-03T02:46:55;101632.50;;;2.82;69.18
78337;BME280;67610;51.588;7.002;2023-03-03T02:49:27;101628.97;;;2.83;69.04
78337;BME280;67610;51.588;7.002;2023-03-03T02:51:53;101619.91;;;2.74;68.96
78337;BME280;67610;51.588;7.002;2023-03-03T02:54:21;101627.59;;;2.76;68.80
78337;BME280;67610;51.588;7.002;2023-03-03T02:56:46;101627.59;;;2.76;68.66
78337;BME280;67610;51.588;7.002;2023-03-03T02:59:13;101636.34;;;2.75;68.69
78337;BME280;67610;51.588;7.002;2023-03-03T03:01:39;101646.03;;;2.71;68.94
78337;BME280;67610;51.588;7.002;2023-03-03T03:04:06;101628.59;;;2.73;68.83
78337;BME280;67610;51.588;7.002;2023-03-03T03:06:32;101630.97;;;2.78;68.70
78337;BME280;67610;51.588;7.002;2023-03-03T03:08:58;101634.16;;;2.83;68.45
78337;BME280;67610;51.588;7.002;2023-03-03T03:11:24;101629.53;;;2.72;68.48
78337;BME280;67610;51.588;7.002;2023-03-03T03:13:49;101647.09;;;2.67;68.82
78337;BME280;67610;51.588;7.002;2023-03-03T03:16:16;101641.16;;;2.65;68.55
78337;BME280;67610;51.588;7.002;2023-03-03T03:18:41;101637.56;;;2.68;68.69
78337;BME280;67610;51.588;7.002;2023-03-03T03:21:14;101642.03;;;2.64;68.85
78337;BME280;67610;51.588;7.002;2023-03-03T03:23:39;101630.38;;;2.56;68.78
78337;BME280;67610;51.588;7.002;2023-03-03T03:26:05;101638.47;;;2.67;68.62
78337;BME280;67610;51.588;7.002;2023-03-03T03:28:31;101642.00;;;2.66;68.69
78337;BME280;67610;51.588;7.002;2023-03-03T03:30:57;101643.78;;;2.64;69.19
78337;BME280;67610;51.588;7.002;2023-03-03T03:33:23;101645.50;;;2.65;68.87
78337;BME280;67610;51.588;7.002;2023-03-03T03:35:48;101648.84;;;2.67;69.11
78337;BME280;67610;51.588;7.002;2023-03-03T03:38:15;101656.03;;;2.62;69.02
78337;BME280;67610;51.588;7.002;2023-03-03T03:40:40;101651.00;;;2.59;68.86
78337;BME280;67610;51.588;7.002;2023-03-03T03:43:06;101658.84;;;2.57;69.12
78337;BME280;67610;51.588;7.002;2023-03-03T03:45:32;101662.16;;;2.61;69.09
78337;BME280;67610;51.588;7.002;2023-03-03T03:47:58;101662.16;;;2.61;69.47
78337;BME280;67610;51.588;7.002;2023-03-03T03:50:23;101664.44;;;2.67;69.36
78337;BME280;67610;51.588;7.002;2023-03-03T03:52:49;101663.44;;;2.69;69.46
78337;BME280;67610;51.588;7.002;2023-03-03T03:55:14;101659.75;;;2.73;69.49
78337;BME280;67610;51.588;7.002;2023-03-03T03:57:41;101667.66;;;2.72;69.51
78337;BME280;67610;51.588;7.002;2023-03-03T04:00:08;101668.16;;;2.78;69.17
78337;BME280;67610;51.588;7.002;2023-03-03T04:02:34;101663.69;;;2.82;69.02
78337;BME280;67610;51.588;7.002;2023-03-03T04:04:59;101662.00;;;2.81;69.33
78337;BME280;67610;51.588;7.002;2023-03-03T04:07:25;101654.88;;;2.84;68.90
78337;BME280;67610;51.588;7.002;2023-03-03T04:09:50;101665.25;;;2.84;69.23
78337;BME280;67610;51.588;7.002;2023-03-03T04:12:16;101676.34;;;2.88;68.67
78337;BME280;67610;51.588;7.002;2023-03-03T04:14:41;101671.38;;;2.83;68.83
78337;BME280;67610;51.588;7.002;2023-03-03T04:17:07;101658.41;;;2.83;68.83
78337;BME280;67610;51.588;7.002;2023-03-03T04:19:32;101648.91;;;2.82;68.83
78337;BME280;67610;51.588;7.002;2023-03-03T04:21:57;101663.06;;;2.77;68.82
78337;BME280;67610;51.588;7.002;2023-03-03T04:24:23;101663.69;;;2.82;68.67
78337;BME280;67610;51.588;7.002;2023-03-03T04:26:48;101663.06;;;2.77;69.03
78337;BME280;67610;51.588;7.002;2023-03-03T04:29:13;101661.50;;;2.73;69.20
78337;BME280;67610;51.588;7.002;2023-03-03T04:31:39;101657.25;;;2.72;68.98
78337;BME280;67610;51.588;7.002;2023-03-03T04:34:04;101666.03;;;2.69;69.42
78337;BME280;67610;51.588;7.002;2023-03-03T04:36:30;101665.19;;;2.69;69.44
78337;BME280;67610;51.588;7.002;2023-03-03T04:38:55;101667.78;;;2.69;69.01
78337;BME280;67610;51.588;7.002;2023-03-03T04:41:20;101678.03;;;2.72;69.03
78337;BME280;67610;51.588;7.002;2023-03-03T04:43:46;101670.16;;;2.73;68.99
78337;BME280;67610;51.588;7.002;2023-03-03T04:46:11;101660.47;;;2.77;68.64
78337;BME280;67610;51.588;7.002;2023-03-03T04:48:36;101670.09;;;2.75;68.52
78337;BME280;67610;51.588;7.002;2023-03-03T04:51:03;101663.28;;;2.72;68.42
78337;BME280;67610;51.588;7.002;2023-03-03T04:53:28;101663.53;;;2.68;68.57
78337;BME280;67610;51.588;7.002;2023-03-03T04:55:53;101655.72;;;2.68;68.47
78337;BME280;67610;51.588;7.002;2023-03-03T04:58:19;101663.44;;;2.69;68.60
78337;BME280;67610;51.588;7.002;2023-03-03T05:00:46;101669.75;;;2.64;68.66
78337;BME280;67610;51.588;7.002;2023-03-03T05:03:11;101656.88;;;2.62;68.85
78337;BME280;67610;51.588;7.002;2023-03-03T05:05:37;101664.81;;;2.59;69.33
78337;BME280;67610;51.588;7.002;2023-03-03T05:08:02;101674.06;;;2.65;69.09
78337;BME280;67610;51.588;7.002;2023-03-03T05:10:28;101663.34;;;2.71;68.90
78337;BME280;67610;51.588;7.002;2023-03-03T05:12:54;101670.31;;;2.70;68.73
78337;BME280;67610;51.588;7.002;2023-03-03T05:15:19;101672.00;;;2.71;68.58
78337;BME280;67610;51.588;7.002;2023-03-03T05:17:44;101667.41;;;2.76;68.61
78337;BME280;67610;51.588;7.002;2023-03-03T05:20:11;101674.31;;;2.77;68.42
78337;BME280;67610;51.588;7.002;2023-03-03T05:22:37;101665.66;;;2.77;68.22
78337;BME280;67610;51.588;7.002;2023-03-03T05:25:02;101660.63;;;2.74;68.68
78337;BME280;67610;51.588;7.002;2023-03-03T05:27:28;101668.53;;;2.71;68.60
78337;BME280;67610;51.588;7.002;2023-03-03T05:29:53;101670.84;;;2.77;68.37
78337;BME280;67610;51.588;7.002;2023-03-03T05:32:19;101668.16;;;2.78;68.23
78337;BME280;67610;51.588;7.002;2023-03-03T05:34:44;101676.81;;;2.79;68.30
78337;BME280;67610;51.588;7.002;2023-03-03T05:37:09;101673.28;;;2.80;68.33
78337;BME280;67610;51.588;7.002;2023-03-03T05:39:35;101677.72;;;2.78;67.96
78337;BME280;67610;51.588;7.002;2023-03-03T05:42:01;101679.50;;;2.77;68.38
78337;BME280;67610;51.588;7.002;2023-03-03T05:44:26;101678.78;;;2.74;68.58
78337;BME280;67610;51.588;7.002;2023-03-03T05:46:52;101671.75;;;2.76;68.48
78337;BME280;67610;51.588;7.002;2023-03-03T05:49:24;101678.56;;;2.78;68.74
78337;BME280;67610;51.588;7.002;2023-03-03T05:51:50;101670.44;;;2.84;68.19
78337;BME280;67610;51.588;7.002;2023-03-03T05:54:15;101667.19;;;2.81;68.08
78337;BME280;67610;51.588;7.002;2023-03-03T05:56:40;101674.59;;;2.89;67.68
78337;BME280;67610;51.588;7.002;2023-03-03T05:59:06;101669.03;;;2.79;68.00
78337;BME280;67610;51.588;7.002;2023-03-03T06:01:31;101683.84;;;2.77;68.20
78337;BME280;67610;51.588;7.002;2023-03-03T06:03:57;101687.50;;;2.73;68.45
78337;BME280;67610;51.588;7.002;2023-03-03T06:06:22;101693.47;;;2.75;68.25
78337;BME280;67610;51.588;7.002;2023-03-03T06:08:48;101685.81;;;2.72;68.29
78337;BME280;67610;51.588;7.002;2023-03-03T06:11:13;101694.53;;;2.71;68.24
78337;BME280;67610;51.588;7.002;2023-03-03T06:13:40;101686.50;;;2.75;67.89
78337;BME280;67610;51.588;7.002;2023-03-03T06:16:07;101694.47;;;2.72;68.24
78337;BME280;67610;51.588;7.002;2023-03-03T06:18:32;101690.78;;;2.76;67.97
78337;BME280;67610;51.588;7.002;2023-03-03T06:20:57;101698.44;;;2.79;67.70
78337;BME280;67610;51.588;7.002;2023-03-03T06:23:23;101700.19;;;2.79;67.78
78337;BME280;67610;51.588;7.002;2023-03-03T06:25:48;101703.41;;;2.84;67.69
78337;BME280;67610;51.588;7.002;2023-03-03T06:28:14;101711.19;;;2.84;67.85
78337;BME280;67610;51.588;7.002;2023-03-03T06:30:39;101706.91;;;2.83;67.92
78337;BME280;67610;51.588;7.002;2023-03-03T06:33:05;101708.44;;;2.87;67.83
78337;BME280;67610;51.588;7.002;2023-03-03T06:35:30;101716.97;;;2.89;67.98
78337;BME280;67610;51.588;7.002;2023-03-03T06:37:56;101712.34;;;2.96;67.84
78337;BME280;67610;51.588;7.002;2023-03-03T06:40:21;101712.25;;;2.97;67.80
78337;BME280;67610;51.588;7.002;2023-03-03T06:42:47;101718.06;;;3.02;67.59
78337;BME280;67610;51.588;7.002;2023-03-03T06:45:12;101719.59;;;3.06;67.59
78337;BME280;67610;51.588;7.002;2023-03-03T06:47:38;101724.94;;;3.03;67.60
78337;BME280;67610;51.588;7.002;2023-03-03T06:50:04;101726.41;;;3.09;67.42
78337;BME280;67610;51.588;7.002;2023-03-03T06:52:30;101729.84;;;3.09;67.15
78337;BME280;67610;51.588;7.002;2023-03-03T06:54:57;101731.69;;;3.07;66.70
78337;BME280;67610;51.588;7.002;2023-03-03T06:57:32;101730.91;;;3.05;67.02
78337;BME280;67610;51.588;7.002;2023-03-03T07:00:49;101738.88;;;3.02;67.10
78337;BME280;67610;51.588;7.002;2023-03-03T07:02:53;101740.38;;;3.06;67.29
78337;BME280;67610;51.588;7.002;2023-03-03T07:05:23;101738.78;;;3.04;67.06
78337;BME280;67610;51.588;7.002;2023-03-03T07:07:48;101742.75;;;3.11;66.67
78337;BME280;67610;51.588;7.002;2023-03-03T07:10:22;101742.00;;;3.09;67.01
78337;BME280;67610;51.588;7.002;2023-03-03T07:12:48;101755.66;;;3.12;66.83
78337;BME280;67610;51.588;7.002;2023-03-03T07:15:16;101742.50;;;3.15;66.71
78337;BME280;67610;51.588;7.002;2023-03-03T07:17:49;101754.59;;;3.16;66.44
78337;BME280;67610;51.588;7.002;2023-03-03T07:20:29;101755.66;;;3.12;66.64
78337;BME280;67610;51.588;7.002;2023-03-03T07:22:56;101759.06;;;3.14;66.48
78337;BME280;67610;51.588;7.002;2023-03-03T07:27:57;101761.03;;;3.09;66.73
78337;BME280;67610;51.588;7.002;2023-03-03T07:30:26;101764.53;;;3.08;66.87
78337;BME280;67610;51.588;7.002;2023-03-03T07:32:54;101765.47;;;3.07;66.74
78337;BME280;67610;51.588;7.002;2023-03-03T07:37:57;101764.25;;;3.14;66.66
78337;BME280;67610;51.588;7.002;2023-03-03T07:42:58;101778.06;;;3.15;66.34
78337;BME280;67610;51.588;7.002;2023-03-03T07:45:26;101776.31;;;3.15;66.60
78337;BME280;67610;51.588;7.002;2023-03-03T07:47:59;101785.84;;;3.15;66.60
78337;BME280;67610;51.588;7.002;2023-03-03T07:50:25;101782.34;;;3.16;66.25
78337;BME280;67610;51.588;7.002;2023-03-03T07:52:56;101790.25;;;3.14;66.36
78337;BME280;67610;51.588;7.002;2023-03-03T07:55:33;101798.94;;;3.13;66.54
78337;BME280;67610;51.588;7.002;2023-03-03T08:03:30;101796.25;;;3.15;66.78
78337;BME280;67610;51.588;7.002;2023-03-03T08:06:09;101803.22;;;3.14;66.61
78337;BME280;67610;51.588;7.002;2023-03-03T08:08:48;101804.91;;;3.15;66.83
78337;BME280;67610;51.588;7.002;2023-03-03T08:11:13;101805.97;;;3.11;66.82
78337;BME280;67610;51.588;7.002;2023-03-03T08:13:40;101805.66;;;3.17;66.82
78337;BME280;67610;51.588;7.002;2023-03-03T08:18:38;101811.88;;;3.32;66.23
78337;BME280;67610;51.588;7.002;2023-03-03T08:21:15;101809.41;;;3.29;66.52
78337;BME280;67610;51.588;7.002;2023-03-03T08:23:43;101818.06;;;3.29;66.17
78337;BME280;67610;51.588;7.002;2023-03-03T08:26:09;101828.47;;;3.29;66.29
78337;BME280;67610;51.588;7.002;2023-03-03T08:28:38;101817.59;;;3.38;65.80
78337;BME280;67610;51.588;7.002;2023-03-03T08:31:03;101824.09;;;3.47;65.55
78337;BME280;67610;51.588;7.002;2023-03-03T08:33:29;101816.91;;;3.52;65.24
78337;BME280;67610;51.588;7.002;2023-03-03T08:35:54;101819.91;;;3.44;65.48
78337;BME280;67610;51.588;7.002;2023-03-03T08:38:20;101827.72;;;3.44;65.67
78337;BME280;67610;51.588;7.002;2023-03-03T08:40:47;101819.50;;;3.52;65.38
78337;BME280;67610;51.588;7.002;2023-03-03T08:43:12;101823.72;;;3.54;65.36
78337;BME280;67610;51.588;7.002;2023-03-03T08:45:47;101819.97;;;3.60;65.12
78337;BME280;67610;51.588;7.002;2023-03-03T08:48:13;101827.06;;;3.57;65.32
78337;BME280;67610;51.588;7.002;2023-03-03T08:50:38;101824.94;;;3.65;65.15
78337;BME280;67610;51.588;7.002;2023-03-03T08:53:05;101837.19;;;3.63;65.21
78337;BME280;67610;51.588;7.002;2023-03-03T08:55:32;101833.88;;;3.59;65.37
78337;BME280;67610;51.588;7.002;2023-03-03T08:57:57;101831.88;;;3.64;65.62
78337;BME280;67610;51.588;7.002;2023-03-03T09:00:23;101834.25;;;3.69;65.55
78337;BME280;67610;51.588;7.002;2023-03-03T09:02:51;101843.81;;;3.68;65.79
78337;BME280;67610;51.588;7.002;2023-03-03T09:05:17;101832.94;;;3.77;65.76
78337;BME280;67610;51.588;7.002;2023-03-03T09:07:43;101837.84;;;3.83;65.43
78337;BME280;67610;51.588;7.002;2023-03-03T09:10:11;101837.75;;;3.85;65.29
78337;BME280;67610;51.588;7.002;2023-03-03T09:12:42;101846.00;;;3.93;64.99
78337;BME280;67610;51.588;7.002;2023-03-03T09:15:16;101845.06;;;3.94;64.59
78337;BME280;67610;51.588;7.002;2023-03-03T09:17:43;101840.13;;;3.89;64.88
78337;BME280;67610;51.588;7.002;2023-03-03T09:20:31;101853.81;;;3.93;65.07
78337;BME280;67610;51.588;7.002;2023-03-03T09:22:59;101851.13;;;3.94;64.80
78337;BME280;67610;51.588;7.002;2023-03-03T09:25:41;101851.97;;;3.95;64.95
78337;BME280;67610;51.588;7.002;2023-03-03T09:28:22;101849.44;;;3.93;65.08
78337;BME280;67610;51.588;7.002;2023-03-03T09:30:48;101856.44;;;3.93;65.13
78337;BME280;67610;51.588;7.002;2023-03-03T09:36:27;101859.59;;;3.98;65.28
78337;BME280;67610;51.588;7.002;2023-03-03T09:38:53;101852.81;;;3.95;64.94
78337;BME280;67610;51.588;7.002;2023-03-03T09:44:09;101855.19;;;4.00;64.99
78337;BME280;67610;51.588;7.002;2023-03-03T09:54:54;101856.72;;;4.19;64.71
78337;BME280;67610;51.588;7.002;2023-03-03T09:57:31;101862.63;;;4.23;64.08
78337;BME280;67610;51.588;7.002;2023-03-03T10:05:19;101865.75;;;4.30;64.19
78337;BME280;67610;51.588;7.002;2023-03-03T10:07:52;101872.06;;;4.41;64.09
78337;BME280;67610;51.588;7.002;2023-03-03T10:15:36;101878.97;;;4.58;63.00
78337;BME280;67610;51.588;7.002;2023-03-03T10:18:29;101875.69;;;4.54;62.95
78337;BME280;67610;51.588;7.002;2023-03-03T10:21:16;101880.00;;;4.55;63.05
78337;BME280;67610;51.588;7.002;2023-03-03T10:23:53;101884.59;;;4.50;62.93
78337;BME280;67610;51.588;7.002;2023-03-03T10:26:45;101882.84;;;4.51;62.75
78337;BME280;67610;51.588;7.002;2023-03-03T10:29:25;101888.06;;;4.51;62.59
78337;BME280;67610;51.588;7.002;2023-03-03T10:35:42;101886.44;;;4.48;62.75
78337;BME280;67610;51.588;7.002;2023-03-03T10:38:28;101888.56;;;4.57;63.20
78337;BME280;67610;51.588;7.002;2023-03-03T10:41:27;101893.94;;;4.70;62.91
78337;BME280;67610;51.588;7.002;2023-03-03T10:44:15;101900.19;;;4.83;62.24
78337;BME280;67610;51.588;7.002;2023-03-03T10:55:13;101892.59;;;4.78;62.04
78337;BME280;67610;51.588;7.002;2023-03-03T11:06:14;101893.84;;;5.03;61.66
78337;BME280;67610;51.588;7.002;2023-03-03T11:11:42;101887.19;;;5.13;61.27
78337;BME280;67610;51.588;7.002;2023-03-03T11:14:29;101884.44;;;5.16;61.24
78337;BME280;67610;51.588;7.002;2023-03-03T11:17:03;101887.53;;;5.22;61.34
78337;BME280;67610;51.588;7.002;2023-03-03T11:19:51;101876.47;;;5.33;61.01
78337;BME280;67610;51.588;7.002;2023-03-03T11:22:41;101879.41;;;5.42;60.45
78337;BME280;67610;51.588;7.002;2023-03-03T11:34:00;101874.16;;;5.72;58.54
78337;BME280;67610;51.588;7.002;2023-03-03T11:36:38;101875.13;;;5.85;58.40
78337;BME280;67610;51.588;7.002;2023-03-03T11:39:08;101867.97;;;5.89;58.43
78337;BME280;67610;51.588;7.002;2023-03-03T11:41:41;101869.03;;;6.00;58.49
78337;BME280;67610;51.588;7.002;2023-03-03T11:44:28;101866.88;;;6.07;57.26
78337;BME280;67610;51.588;7.002;2023-03-03T11:54:56;101858.19;;;6.49;56.32
78337;BME280;67610;51.588;7.002;2023-03-03T11:57:31;101858.19;;;6.49;55.79
78337;BME280;67610;51.588;7.002;2023-03-03T12:02:54;101852.75;;;6.66;55.81
78337;BME280;67610;51.588;7.002;2023-03-03T12:11:33;101846.44;;;6.82;55.60
78337;BME280;67610;51.588;7.002;2023-03-03T12:22:34;101830.13;;;7.18;54.82
78337;BME280;67610;51.588;7.002;2023-03-03T12:27:55;101833.66;;;7.56;54.07
78337;BME280;67610;51.588;7.002;2023-03-03T12:38:55;101828.66;;;7.66;52.58
78337;BME280;67610;51.588;7.002;2023-03-03T12:41:39;101831.56;;;7.61;53.70
78337;BME280;67610;51.588;7.002;2023-03-03T12:44:22;101823.75;;;7.74;53.48
78337;BME280;67610;51.588;7.002;2023-03-03T12:47:24;101822.06;;;7.86;53.53
78337;BME280;67610;51.588;7.002;2023-03-03T12:58:30;101817.75;;;7.85;52.21
78337;BME280;67610;51.588;7.002;2023-03-03T13:08:55;101820.38;;;7.85;52.50
78337;BME280;67610;51.588;7.002;2023-03-03T13:22:34;101808.28;;;8.45;52.73
78337;BME280;67610;51.588;7.002;2023-03-03T13:27:55;101811.41;;;8.50;51.97
78337;BME280;67610;51.588;7.002;2023-03-03T13:30:36;101809.31;;;8.55;51.90
78337;BME280;67610;51.588;7.002;2023-03-03T13:33:19;101801.72;;;8.63;52.07
78337;BME280;67610;51.588;7.002;2023-03-03T13:35:53;101795.56;;;8.75;51.45
78337;BME280;67610;51.588;7.002;2023-03-03T13:38:27;101808.16;;;8.83;51.53
78337;BME280;67610;51.588;7.002;2023-03-03T13:43:29;101791.50;;;8.95;51.54
78337;BME280;67610;51.588;7.002;2023-03-03T13:46:39;101801.38;;;8.91;51.25
78337;BME280;67610;51.588;7.002;2023-03-03T13:51:57;101791.22;;;8.87;50.81
78337;BME280;67610;51.588;7.002;2023-03-03T13:57:37;101781.06;;;8.82;51.61
78337;BME280;67610;51.588;7.002;2023-03-03T14:03:06;101771.69;;;8.67;51.10
78337;BME280;67610;51.588;7.002;2023-03-03T14:05:40;101775.47;;;8.63;51.44
78337;BME280;67610;51.588;7.002;2023-03-03T14:11:19;101772.78;;;8.65;51.62
78337;BME280;67610;51.588;7.002;2023-03-03T14:17:00;101770.25;;;8.63;51.48
78337;BME280;67610;51.588;7.002;2023-03-03T14:19:56;101760.81;;;8.61;51.31
78337;BME280;67610;51.588;7.002;2023-03-03T14:22:48;101760.19;;;8.57;51.60
78337;BME280;67610;51.588;7.002;2023-03-03T14:25:15;101750.38;;;8.48;51.33
78337;BME280;67610;51.588;7.002;2023-03-03T14:30:36;101754.91;;;8.46;51.73
78337;BME280;67610;51.588;7.002;2023-03-03T14:38:22;101754.59;;;8.38;51.94
78337;BME280;67610;51.588;7.002;2023-03-03T14:40:47;101755.91;;;8.32;52.27
78337;BME280;67610;51.588;7.002;2023-03-03T14:43:22;101744.13;;;8.38;52.34
78337;BME280;67610;51.588;7.002;2023-03-03T14:45:49;101754.41;;;8.41;52.17
78337;BME280;67610;51.588;7.002;2023-03-03T14:48:17;101750.97;;;8.52;52.31
78337;BME280;67610;51.588;7.002;2023-03-03T14:50:55;101748.03;;;8.56;51.88
78337;BME280;67610;51.588;7.002;2023-03-03T14:55:49;101747.22;;;8.56;52.02
78337;BME280;67610;51.588;7.002;2023-03-03T14:58:37;101740.88;;;8.58;51.28
78337;BME280;67610;51.588;7.002;2023-03-03T15:04:01;101738.88;;;8.62;51.20
78337;BME280;67610;51.588;7.002;2023-03-03T15:06:40;101734.50;;;8.62;51.68
78337;BME280;67610;51.588;7.002;2023-03-03T15:12:18;101733.00;;;8.58;52.03
78337;BME280;67610;51.588;7.002;2023-03-03T15:14:46;101725.16;;;8.58;52.36
78337;BME280;67610;51.588;7.002;2023-03-03T15:17:25;101722.53;;;8.58;52.13
78337;BME280;67610;51.588;7.002;2023-03-03T15:25:09;101723.91;;;8.51;51.73
78337;BME280;67610;51.588;7.002;2023-03-03T15:27:41;101718.47;;;8.54;51.80
78337;BME280;67610;51.588;7.002;2023-03-03T15:32:46;101710.56;;;8.43;51.87
78337;BME280;67610;51.588;7.002;2023-03-03T15:35:18;101715.28;;;8.38;51.76
78337;BME280;67610;51.588;7.002;2023-03-03T15:37:58;101718.63;;;8.40;51.71
78337;BME280;67610;51.588;7.002;2023-03-03T15:40:45;101717.56;;;8.42;51.50
78337;BME280;67610;51.588;7.002;2023-03-03T15:43:36;101699.56;;;8.38;51.58
78337;BME280;67610;51.588;7.002;2023-03-03T15:57:04;101700.22;;;8.29;51.75
78337;BME280;67610;51.588;7.002;2023-03-03T16:02:41;101698.25;;;8.20;52.00
78337;BME280;67610;51.588;7.002;2023-03-03T16:08:01;101700.34;;;8.15;52.65
78337;BME280;67610;51.588;7.002;2023-03-03T16:11:07;101705.47;;;8.16;52.61
78337;BME280;67610;51.588;7.002;2023-03-03T16:22:27;101703.63;;;8.06;53.26
78337;BME280;67610;51.588;7.002;2023-03-03T16:25:24;101701.94;;;8.05;53.54
78337;BME280;67610;51.588;7.002;2023-03-03T16:30:37;101701.66;;;7.97;53.73
78337;BME280;67610;51.588;7.002;2023-03-03T16:33:13;101703.56;;;7.95;53.65
78337;BME280;67610;51.588;7.002;2023-03-03T16:36:12;101699.97;;;7.96;53.92
78337;BME280;67610;51.588;7.002;2023-03-03T16:38:37;101702.84;;;7.93;53.97
78337;BME280;67610;51.588;7.002;2023-03-03T16:41:09;101701.66;;;7.97;55.08
78337;BME280;67610;51.588;7.002;2023-03-03T16:46:37;101707.03;;;8.19;53.72
78337;BME280;67610;51.588;7.002;2023-03-03T16:52:12;101703.41;;;8.09;53.45
78337;BME280;67610;51.588;7.002;2023-03-03T16:54:49;101711.47;;;8.06;53.55
78337;BME280;67610;51.588;7.002;2023-03-03T16:57:40;101711.09;;;7.99;53.76
78337;BME280;67610;51.588;7.002;2023-03-03T17:00:29;101710.69;;;7.93;53.69
78337;BME280;67610;51.588;7.002;2023-03-03T17:03:10;101713.00;;;7.85;53.35
78337;BME280;67610;51.588;7.002;2023-03-03T17:05:46;101712.72;;;7.77;53.73
78337;BME280;67610;51.588;7.002;2023-03-03T17:16:16;101722.66;;;7.71;54.34
78337;BME280;67610;51.588;7.002;2023-03-03T17:27:21;101729.66;;;7.33;54.58
78337;BME280;67610;51.588;7.002;2023-03-03T17:30:21;101731.88;;;7.27;54.65
78337;BME280;67610;51.588;7.002;2023-03-03T17:38:48;101743.06;;;7.16;54.93
78337;BME280;67610;51.588;7.002;2023-03-03T17:41:43;101744.22;;;7.12;55.30
78337;BME280;67610;51.588;7.002;2023-03-03T17:47:10;101741.69;;;7.11;55.36